createdAt,value
2022-08-16T00:01:16.599Z,11.43
2022-08-16T00:03:18.973Z,11.45
2022-08-16T00:05:22.839Z,10.65
2022-08-16T00:07:25.042Z,10.32
2022-08-16T00:09:31.115Z,10.80
2022-08-16T00:11:33.234Z,10.90
2022-08-16T00:13:41.686Z,12.10
2022-08-16T00:15:50.887Z,11.85
2022-08-16T00:17:56.558Z,12.38
2022-08-16T00:19:59.651Z,12.00
2022-08-16T00:22:06.803Z,11.43
2022-08-16T00:24:31.163Z,12.05
2022-08-16T00:26:38.705Z,10.73
2022-08-16T00:28:45.795Z,10.40
2022-08-16T00:30:48.134Z,11.20
2022-08-16T00:32:53.160Z,10.38
2022-08-16T00:35:00.606Z,10.27
2022-08-16T00:37:04.173Z,10.52
2022-08-16T00:41:08.278Z,11.10
2022-08-16T00:43:19.354Z,9.82
2022-08-16T00:46:01.078Z,10.43
2022-08-16T00:48:28.646Z,11.68
2022-08-16T00:50:36.485Z,13.50
2022-08-16T00:52:45.945Z,14.07
2022-08-16T00:54:53.548Z,15.82
2022-08-16T00:57:00.154Z,14.18
2022-08-16T00:59:02.304Z,13.50
2022-08-16T01:01:08.242Z,11.85
2022-08-16T01:03:12.810Z,12.57
2022-08-16T01:05:14.966Z,11.80
2022-08-16T01:07:17.802Z,12.52
2022-08-16T01:09:20.019Z,11.65
2022-08-16T01:11:25.179Z,11.63
2022-08-16T01:13:30.889Z,11.05
2022-08-16T01:15:36.979Z,11.45
2022-08-16T01:17:45.361Z,11.45
2022-08-16T01:22:47.944Z,10.77
2022-08-16T01:25:07.420Z,11.55
2022-08-16T01:27:42.494Z,11.40
2022-08-16T01:30:20.007Z,10.70
2022-08-16T01:32:31.446Z,11.38
2022-08-16T01:34:33.997Z,10.98
2022-08-16T01:36:58.333Z,11.68
2022-08-16T01:39:00.614Z,11.48
2022-08-16T01:41:13.230Z,11.02
2022-08-16T01:43:21.666Z,11.88
2022-08-16T01:45:39.806Z,11.90
2022-08-16T01:47:49.273Z,11.77
2022-08-16T01:50:42.220Z,12.63
2022-08-16T01:52:29.711Z,12.38
2022-08-16T01:54:32.543Z,12.50
2022-08-16T01:56:40.120Z,12.98
2022-08-16T02:00:50.253Z,12.55
2022-08-16T02:02:53.966Z,12.00
2022-08-16T02:04:57.415Z,12.88
2022-08-16T02:06:59.854Z,14.02
2022-08-16T02:09:01.961Z,12.88
2022-08-16T02:11:08.682Z,13.45
2022-08-16T02:13:10.683Z,12.55
2022-08-16T02:15:14.255Z,13.60
2022-08-16T02:17:16.323Z,12.77
2022-08-16T02:19:19.865Z,13.00
2022-08-16T02:21:31.233Z,13.73
2022-08-16T02:23:34.629Z,14.40
2022-08-16T02:25:52.692Z,13.93
2022-08-16T02:27:57.041Z,13.35
2022-08-16T02:30:04.912Z,14.57
2022-08-16T02:32:50.837Z,14.60
2022-08-16T02:34:34.719Z,13.75
2022-08-16T02:36:49.736Z,14.13
2022-08-16T02:38:52.917Z,13.82
2022-08-16T02:40:56.656Z,14.50
2022-08-16T02:42:58.685Z,14.05
2022-08-16T02:45:02.301Z,14.50
2022-08-16T02:47:04.314Z,13.57
2022-08-16T02:49:07.258Z,13.40
2022-08-16T02:51:11.716Z,13.35
2022-08-16T02:53:13.930Z,14.05
2022-08-16T02:55:41.290Z,13.32
2022-08-16T02:57:54.186Z,14.30
2022-08-16T02:59:56.800Z,14.00
2022-08-16T03:01:59.124Z,14.88
2022-08-16T03:04:30.131Z,14.02
2022-08-16T03:08:52.144Z,14.80
2022-08-16T03:10:54.810Z,14.75
2022-08-16T03:13:01.845Z,14.05
2022-08-16T03:15:09.429Z,13.98
2022-08-16T03:17:12.116Z,13.77
2022-08-16T03:19:14.099Z,13.73
2022-08-16T03:21:16.102Z,13.07
2022-08-16T03:23:20.591Z,13.15
2022-08-16T03:25:25.228Z,13.40
2022-08-16T03:27:44.281Z,13.93
2022-08-16T03:29:54.913Z,13.02
2022-08-16T03:31:58.995Z,12.73
2022-08-16T03:34:01.516Z,13.10
2022-08-16T03:36:30.938Z,13.20
2022-08-16T03:38:34.418Z,14.43
2022-08-16T03:40:37.352Z,13.75
2022-08-16T03:43:19.288Z,12.90
2022-08-16T03:45:03.546Z,13.45
2022-08-16T03:47:10.116Z,14.25
2022-08-16T03:49:13.186Z,13.98
2022-08-16T03:51:15.504Z,13.60
2022-08-16T03:53:17.588Z,13.45
2022-08-16T03:55:19.628Z,14.15
2022-08-16T03:59:24.716Z,14.13
2022-08-16T04:01:29.265Z,14.40
2022-08-16T04:03:32.080Z,15.20
2022-08-16T04:05:44.027Z,15.43
2022-08-16T04:07:46.439Z,14.63
2022-08-16T04:09:52.807Z,14.63
2022-08-16T04:11:54.851Z,15.52
2022-08-16T04:13:59.209Z,16.58
2022-08-16T04:16:26.769Z,14.30
2022-08-16T04:18:30.937Z,14.93
2022-08-16T04:20:36.938Z,15.73
2022-08-16T04:22:39.814Z,14.30
2022-08-16T04:24:41.931Z,15.80
2022-08-16T04:26:56.558Z,16.05
2022-08-16T04:29:21.645Z,15.05
2022-08-16T04:31:23.685Z,16.67
2022-08-16T04:33:27.162Z,15.98
2022-08-16T04:35:34.212Z,15.75
2022-08-16T04:37:42.033Z,15.60
2022-08-16T04:39:47.339Z,16.10
2022-08-16T04:41:57.506Z,16.25
2022-08-16T04:44:00.884Z,16.08
2022-08-16T04:46:03.213Z,17.65
2022-08-16T04:48:05.864Z,15.45
2022-08-16T04:50:18.149Z,16.40
2022-08-16T04:52:35.233Z,15.68
2022-08-16T04:54:37.698Z,16.92
2022-08-16T04:56:46.316Z,16.38
2022-08-16T04:58:50.681Z,16.25
2022-08-16T05:00:52.982Z,16.15
2022-08-16T05:02:56.113Z,16.95
2022-08-16T05:04:58.354Z,16.35
2022-08-16T05:07:00.644Z,16.98
2022-08-16T05:09:02.830Z,17.08
2022-08-16T05:13:15.535Z,16.65
2022-08-16T05:15:17.965Z,16.98
2022-08-16T05:17:24.784Z,16.48
2022-08-16T05:19:27.039Z,17.55
2022-08-16T05:21:38.847Z,16.60
2022-08-16T05:23:44.278Z,16.98
2022-08-16T05:25:49.014Z,16.92
2022-08-16T05:27:51.783Z,17.75
2022-08-16T05:29:57.032Z,17.70
2022-08-16T05:32:03.285Z,16.75
2022-08-16T05:34:25.324Z,16.80
2022-08-16T05:36:33.821Z,16.27
2022-08-16T05:38:39.638Z,16.48
2022-08-16T05:40:42.214Z,16.55
2022-08-16T05:42:59.319Z,16.67
2022-08-16T05:45:06.973Z,17.92
2022-08-16T05:47:09.222Z,16.83
2022-08-16T05:49:22.183Z,17.13
2022-08-16T05:51:37.660Z,17.23
2022-08-16T05:53:41.385Z,16.95
2022-08-16T05:55:43.508Z,18.27
2022-08-16T05:57:52.611Z,17.98
2022-08-16T05:59:59.755Z,18.25
2022-08-16T06:02:02.821Z,17.75
2022-08-16T06:04:13.626Z,18.38
2022-08-16T06:06:30.415Z,17.85
2022-08-16T06:08:42.052Z,17.88
2022-08-16T06:11:09.715Z,16.92
2022-08-16T06:13:06.518Z,16.88
2022-08-16T06:15:15.038Z,17.38
2022-08-16T06:17:19.479Z,17.88
2022-08-16T06:19:23.784Z,17.42
2022-08-16T06:21:25.842Z,17.95
2022-08-16T06:23:27.862Z,16.70
2022-08-16T06:25:36.755Z,17.67
2022-08-16T06:27:41.707Z,17.40
2022-08-16T06:29:59.252Z,16.48
2022-08-16T06:32:01.247Z,17.15
2022-08-16T06:34:03.318Z,17.75
2022-08-16T06:36:26.714Z,16.67
2022-08-16T06:38:33.483Z,16.98
2022-08-16T06:40:36.433Z,15.98
2022-08-16T06:42:47.317Z,17.30
2022-08-16T06:44:50.503Z,15.90
2022-08-16T06:46:52.494Z,17.67
2022-08-16T06:48:54.523Z,16.60
2022-08-16T06:50:58.578Z,17.25
2022-08-16T06:53:19.860Z,16.33
2022-08-16T06:55:22.044Z,17.67
2022-08-16T06:57:26.843Z,16.05
2022-08-16T06:59:29.185Z,16.52
2022-08-16T07:03:54.936Z,15.25
2022-08-16T07:05:58.123Z,16.10
2022-08-16T07:10:09.621Z,16.75
2022-08-16T07:12:11.648Z,15.93
2022-08-16T07:14:25.004Z,17.10
2022-08-16T07:16:28.902Z,14.60
2022-08-16T07:18:30.914Z,15.02
2022-08-16T07:20:47.467Z,16.38
2022-08-16T07:22:58.806Z,15.02
2022-08-16T07:25:01.423Z,15.95
2022-08-16T07:27:04.259Z,16.52
2022-08-16T07:29:10.682Z,17.20
2022-08-16T07:31:13.032Z,15.98
2022-08-16T07:33:51.371Z,16.30
2022-08-16T07:35:44.211Z,14.70
2022-08-16T07:37:51.326Z,14.90
2022-08-16T07:39:56.872Z,14.98
2022-08-16T07:41:59.743Z,14.65
2022-08-16T07:44:02.165Z,15.90
2022-08-16T07:46:39.079Z,15.20
2022-08-16T07:48:40.415Z,14.10
2022-08-16T07:50:55.942Z,14.75
2022-08-16T07:53:02.130Z,14.85
2022-08-16T07:55:04.725Z,15.32
2022-08-16T07:59:13.619Z,15.05
2022-08-16T08:01:16.472Z,14.75
2022-08-16T08:03:18.899Z,13.90
2022-08-16T08:05:25.533Z,13.93
2022-08-16T08:07:38.034Z,13.57
2022-08-16T08:09:47.253Z,14.05
2022-08-16T08:12:00.717Z,15.00
2022-08-16T08:14:06.879Z,15.55
2022-08-16T08:16:18.601Z,14.48
2022-08-16T08:18:30.138Z,15.50
2022-08-16T08:20:33.684Z,13.23
2022-08-16T08:22:36.758Z,14.57
2022-08-16T08:24:44.023Z,14.10
2022-08-16T08:26:50.093Z,13.05
2022-08-16T08:28:52.798Z,13.05
2022-08-16T08:31:02.407Z,13.98
2022-08-16T08:33:05.767Z,14.07
2022-08-16T08:35:11.801Z,14.93
2022-08-16T08:37:14.207Z,14.48
2022-08-16T08:39:20.911Z,13.73
2022-08-16T08:41:28.276Z,14.73
2022-08-16T08:43:30.782Z,14.65
2022-08-16T08:45:48.092Z,13.98
2022-08-16T08:47:58.327Z,14.23
2022-08-16T08:50:00.818Z,13.57
2022-08-16T08:52:08.176Z,13.38
2022-08-16T08:54:11.375Z,13.98
2022-08-16T08:56:23.330Z,13.30
2022-08-16T08:58:34.083Z,12.77
2022-08-16T09:00:51.069Z,13.55
2022-08-16T09:02:54.161Z,14.63
2022-08-16T09:04:58.708Z,12.07
2022-08-16T09:07:01.715Z,12.43
2022-08-16T09:11:07.330Z,12.13
2022-08-16T09:13:10.613Z,12.75
2022-08-16T09:15:14.331Z,13.18
2022-08-16T09:17:37.980Z,13.38
2022-08-16T09:19:41.001Z,12.15
2022-08-16T09:21:43.469Z,11.73
2022-08-16T09:23:45.888Z,12.45
2022-08-16T09:25:49.115Z,11.00
2022-08-16T09:27:57.733Z,12.15
2022-08-16T09:30:33.625Z,11.50
2022-08-16T09:34:33.320Z,11.30
2022-08-16T09:36:35.332Z,11.55
2022-08-16T09:40:44.286Z,10.95
2022-08-16T09:42:56.532Z,10.88
2022-08-16T09:45:10.885Z,11.07
2022-08-16T09:47:18.367Z,10.63
2022-08-16T09:49:26.366Z,10.77
2022-08-16T09:51:39.972Z,10.25
2022-08-16T09:53:43.185Z,10.35
2022-08-16T09:55:49.608Z,10.07
2022-08-16T09:57:53.064Z,10.50
2022-08-16T09:59:56.394Z,10.43
2022-08-16T10:01:58.778Z,9.88
2022-08-16T10:04:04.139Z,9.88
2022-08-16T10:06:07.797Z,10.43
2022-08-16T10:08:26.368Z,9.50
2022-08-16T10:10:30.824Z,9.60
2022-08-16T10:12:55.596Z,9.80
2022-08-16T10:14:58.832Z,10.15
2022-08-16T10:17:04.623Z,9.15
2022-08-16T10:19:07.582Z,8.82
2022-08-16T10:21:10.664Z,9.13
2022-08-16T10:23:17.098Z,8.48
2022-08-16T10:27:18.204Z,9.13
2022-08-16T10:27:46.023Z,8.82
2022-08-16T10:30:00.317Z,8.48
2022-08-16T10:32:03.942Z,7.70
2022-08-16T10:34:06.275Z,8.35
2022-08-16T10:36:39.294Z,8.77
2022-08-16T10:38:42.328Z,8.82
2022-08-16T10:40:45.492Z,9.45
2022-08-16T10:42:50.320Z,8.10
2022-08-16T10:44:53.813Z,8.95
2022-08-16T10:46:56.771Z,7.53
2022-08-16T10:48:58.774Z,8.32
2022-08-16T10:51:03.402Z,8.23
2022-08-16T10:53:07.780Z,8.88
2022-08-16T10:57:34.827Z,8.00
2022-08-16T10:59:51.858Z,8.45
2022-08-16T11:05:05.438Z,9.13
2022-08-16T11:07:06.697Z,8.45
2022-08-16T11:09:25.362Z,9.35
2022-08-16T11:11:28.099Z,9.15
2022-08-16T11:15:55.674Z,8.73
2022-08-16T11:22:48.422Z,9.82
2022-08-16T11:25:11.809Z,8.75
2022-08-16T11:27:20.557Z,9.70
2022-08-16T11:29:26.753Z,9.50
2022-08-16T11:31:29.159Z,9.05
2022-08-16T11:38:46.759Z,8.60
2022-08-16T11:40:56.868Z,9.23
2022-08-16T11:43:04.125Z,9.32
2022-08-16T11:45:07.420Z,9.23
2022-08-16T11:47:09.677Z,9.35
2022-08-16T11:49:13.992Z,10.15
2022-08-16T11:51:16.254Z,8.82
2022-08-16T11:53:21.234Z,8.77
2022-08-16T11:55:24.060Z,9.57
2022-08-16T11:59:29.400Z,9.18
2022-08-16T12:01:44.481Z,9.20
2022-08-16T12:03:54.362Z,8.77
2022-08-16T12:05:56.938Z,9.10
2022-08-16T12:10:06.355Z,8.60
2022-08-16T12:12:10.500Z,9.00
2022-08-16T12:14:14.343Z,8.68
2022-08-16T12:16:20.671Z,9.05
2022-08-16T12:18:22.969Z,8.25
2022-08-16T12:20:30.376Z,9.30
2022-08-16T12:22:36.677Z,8.90
2022-08-16T12:24:38.912Z,8.63
2022-08-16T12:28:53.986Z,8.77
2022-08-16T12:30:58.325Z,9.18
2022-08-16T12:33:02.985Z,8.85
2022-08-16T12:35:07.559Z,8.65
2022-08-16T12:37:11.492Z,8.73
2022-08-16T12:39:14.561Z,9.45
2022-08-16T12:41:24.701Z,9.05
2022-08-16T12:43:31.208Z,9.05
2022-08-16T12:45:37.012Z,9.40
2022-08-16T12:48:16.031Z,9.10
2022-08-16T12:50:20.068Z,10.50
2022-08-16T12:54:37.468Z,9.48
2022-08-16T12:56:42.797Z,9.32
2022-08-16T12:58:48.460Z,8.45
2022-08-16T13:00:52.753Z,8.23
2022-08-16T13:02:54.769Z,8.60
2022-08-16T13:04:56.769Z,8.43
2022-08-16T13:07:04.609Z,8.60
2022-08-16T13:09:20.864Z,7.68
2022-08-16T13:11:38.555Z,5.90
2022-08-16T13:13:43.471Z,5.50
2022-08-16T13:15:51.723Z,6.00
2022-08-16T13:18:00.419Z,4.82
2022-08-16T13:20:11.053Z,4.88
2022-08-16T13:22:19.542Z,5.53
2022-08-16T13:24:21.883Z,4.93
2022-08-16T13:26:26.453Z,5.32
2022-08-16T13:28:28.695Z,4.80
2022-08-16T13:30:41.268Z,5.40
2022-08-16T13:32:44.211Z,5.18
2022-08-16T13:34:47.858Z,5.45
2022-08-16T13:36:51.846Z,6.55
2022-08-16T13:38:54.364Z,5.95
2022-08-16T13:40:57.016Z,6.63
2022-08-16T13:42:59.448Z,6.45
2022-08-16T13:45:01.451Z,6.05
2022-08-16T13:47:04.314Z,6.10
2022-08-16T13:49:06.966Z,6.15
2022-08-16T13:51:08.989Z,6.10
2022-08-16T13:53:17.861Z,6.60
2022-08-16T13:55:19.842Z,6.65
2022-08-16T13:57:21.862Z,6.47
2022-08-16T13:59:43.890Z,7.10
2022-08-16T14:01:55.740Z,6.72
2022-08-16T14:03:58.400Z,8.13
2022-08-16T14:06:00.700Z,8.20
2022-08-16T14:08:03.048Z,7.75
2022-08-16T14:10:10.948Z,7.38
2022-08-16T14:12:27.538Z,8.07
2022-08-16T14:14:31.467Z,8.30
2022-08-16T14:16:34.811Z,8.32
2022-08-16T14:18:37.192Z,9.45
2022-08-16T14:20:39.225Z,9.25
2022-08-16T14:22:54.543Z,8.95
2022-08-16T14:24:57.128Z,9.15
2022-08-16T14:26:59.099Z,8.80
2022-08-16T14:29:03.894Z,8.93
2022-08-16T14:31:06.659Z,9.02
2022-08-16T14:33:10.422Z,9.48
2022-08-16T14:35:18.464Z,9.77
2022-08-16T14:37:20.591Z,9.93
2022-08-16T14:39:24.693Z,10.30
2022-08-16T14:41:27.927Z,10.55
2022-08-16T14:43:30.859Z,9.63
2022-08-16T14:45:33.201Z,10.95
2022-08-16T14:47:37.423Z,11.30
2022-08-16T14:49:40.677Z,9.45
2022-08-16T14:51:46.226Z,9.82
2022-08-16T14:53:52.036Z,9.43
2022-08-16T14:55:55.058Z,8.80
2022-08-16T14:57:57.152Z,10.35
2022-08-16T15:00:04.733Z,10.65
2022-08-16T15:02:23.467Z,9.65
2022-08-16T15:04:39.628Z,9.10
2022-08-16T15:06:50.209Z,8.75
2022-08-16T15:08:52.707Z,10.20
2022-08-16T15:12:58.429Z,7.40
2022-08-16T15:15:01.123Z,8.52
2022-08-16T15:17:03.163Z,8.38
2022-08-16T15:19:05.739Z,7.60
2022-08-16T15:21:08.449Z,7.32
2022-08-16T15:23:10.901Z,7.68
2022-08-16T15:25:29.497Z,8.55
2022-08-16T15:27:35.993Z,8.40
2022-08-16T15:29:38.871Z,7.32
2022-08-16T15:31:41.627Z,7.68
2022-08-16T15:33:51.030Z,8.15
2022-08-16T15:36:00.130Z,8.23
2022-08-16T15:38:09.218Z,8.60
2022-08-16T15:40:26.747Z,7.78
2022-08-16T15:42:35.027Z,7.88
2022-08-16T15:44:51.907Z,7.75
2022-08-16T15:46:58.784Z,8.27
2022-08-16T15:49:04.545Z,7.65
2022-08-16T15:51:08.320Z,8.38
2022-08-16T15:53:21.217Z,9.07
2022-08-16T15:55:29.837Z,9.00
2022-08-16T15:57:41.634Z,8.35
2022-08-16T15:59:49.078Z,8.10
2022-08-16T16:01:58.265Z,7.78
2022-08-16T16:04:00.345Z,8.82
2022-08-16T16:06:03.738Z,8.48
2022-08-16T16:08:09.862Z,8.65
2022-08-16T16:10:13.723Z,9.25
2022-08-16T16:12:42.045Z,9.95
2022-08-16T16:14:37.787Z,9.52
2022-08-16T16:16:41.772Z,9.20
2022-08-16T16:18:49.061Z,7.50
2022-08-16T16:20:54.183Z,7.40
2022-08-16T16:23:00.995Z,6.88
2022-08-16T16:25:03.013Z,8.02
2022-08-16T16:27:06.658Z,8.55
2022-08-16T16:29:15.064Z,7.60
2022-08-16T16:31:18.855Z,7.72
2022-08-16T16:33:24.677Z,8.65
2022-08-16T16:35:27.766Z,8.13
2022-08-16T16:37:34.883Z,8.40
2022-08-16T16:39:39.173Z,7.57
2022-08-16T16:41:43.262Z,7.72
2022-08-16T16:43:45.369Z,9.43
2022-08-16T16:45:47.394Z,8.38
2022-08-16T16:47:49.829Z,8.07
2022-08-16T16:49:56.474Z,8.20
2022-08-16T16:52:06.741Z,7.70
2022-08-16T16:54:09.823Z,7.05
2022-08-16T16:56:20.379Z,8.32
2022-08-16T16:58:53.953Z,8.52
2022-08-16T17:00:58.941Z,8.15
2022-08-16T17:03:01.948Z,8.80
2022-08-16T17:05:04.874Z,8.85
2022-08-16T17:07:11.835Z,8.10
2022-08-16T17:09:14.337Z,8.50
2022-08-16T17:11:16.363Z,8.73
2022-08-16T17:13:20.536Z,8.10
2022-08-16T17:15:23.725Z,7.93
2022-08-16T17:17:26.466Z,7.30
2022-08-16T17:19:31.493Z,7.05
2022-08-16T17:21:36.961Z,7.70
2022-08-16T17:23:59.090Z,7.47
2022-08-16T17:26:01.224Z,8.57
2022-08-16T17:28:58.810Z,8.30
2022-08-16T17:30:44.763Z,7.97
2022-08-16T17:32:54.543Z,7.45
2022-08-16T17:35:00.387Z,7.90
2022-08-16T17:37:08.183Z,8.80
2022-08-16T17:39:12.223Z,8.45
2022-08-16T17:41:17.325Z,7.45
2022-08-16T17:43:27.562Z,8.18
2022-08-16T17:45:29.606Z,8.30
2022-08-16T17:47:31.621Z,7.53
2022-08-16T17:49:33.630Z,8.25
2022-08-16T17:51:35.682Z,7.93
2022-08-16T17:53:37.679Z,8.00
2022-08-16T17:55:42.897Z,8.10
2022-08-16T17:57:44.901Z,8.20
2022-08-16T17:59:50.141Z,8.57
2022-08-16T18:01:53.566Z,8.32
2022-08-16T18:04:06.638Z,8.43
2022-08-16T18:06:12.275Z,8.05
2022-08-16T18:08:15.454Z,8.48
2022-08-16T18:10:31.235Z,8.23
2022-08-16T18:12:50.754Z,9.02
2022-08-16T18:15:00.159Z,9.10
2022-08-16T18:17:02.433Z,8.77
2022-08-16T18:19:04.459Z,7.93
2022-08-16T18:21:25.198Z,8.98
2022-08-16T18:23:27.402Z,9.75
2022-08-16T18:25:29.418Z,8.73
2022-08-16T18:27:32.749Z,9.95
2022-08-16T18:29:34.861Z,9.50
2022-08-16T18:31:37.262Z,10.32
2022-08-16T18:33:43.330Z,9.50
2022-08-16T18:35:46.162Z,9.45
2022-08-16T18:37:48.418Z,9.43
2022-08-16T18:39:50.693Z,9.50
2022-08-16T18:41:52.944Z,8.82
2022-08-16T18:44:26.272Z,9.25
2022-08-16T18:46:17.021Z,9.15
2022-08-16T18:48:20.662Z,9.02
2022-08-16T18:50:23.245Z,8.95
2022-08-16T18:54:29.436Z,8.45
2022-08-16T18:56:54.366Z,8.98
2022-08-16T18:58:53.561Z,7.65
2022-08-16T19:00:56.903Z,8.85
2022-08-16T19:03:19.163Z,9.50
2022-08-16T19:05:25.254Z,9.70
2022-08-16T19:07:30.619Z,9.85
2022-08-16T19:09:34.004Z,10.23
2022-08-16T19:11:37.176Z,9.30
2022-08-16T19:13:40.551Z,9.70
2022-08-16T19:15:43.188Z,10.30
2022-08-16T19:19:47.347Z,10.32
2022-08-16T19:21:49.380Z,10.13
2022-08-16T19:23:52.794Z,9.35
2022-08-16T19:26:00.150Z,9.73
2022-08-16T19:28:02.158Z,9.57
2022-08-16T19:30:09.569Z,9.23
2022-08-16T19:34:20.799Z,8.95
2022-08-16T19:36:38.315Z,10.48
2022-08-16T19:38:40.322Z,10.65
2022-08-16T19:40:43.933Z,11.02
2022-08-16T19:42:48.335Z,11.02
2022-08-16T19:44:52.668Z,10.73
2022-08-16T19:46:54.964Z,11.82
2022-08-16T19:48:56.973Z,10.95
2022-08-16T19:50:58.988Z,11.23
2022-08-16T19:53:18.870Z,12.93
2022-08-16T19:55:22.684Z,12.30
2022-08-16T19:57:26.384Z,12.55
2022-08-16T19:59:39.545Z,11.63
2022-08-16T20:01:43.662Z,16.52
2022-08-16T20:03:45.788Z,15.35
2022-08-16T20:05:50.434Z,13.60
2022-08-16T20:07:52.521Z,13.00
2022-08-16T20:09:57.838Z,13.10
2022-08-16T20:12:14.642Z,12.93
2022-08-16T20:14:24.491Z,13.30
2022-08-16T20:16:27.877Z,12.55
2022-08-16T20:18:29.888Z,14.27
2022-08-16T20:20:31.910Z,11.35
2022-08-16T20:22:53.062Z,13.57
2022-08-16T20:24:56.120Z,11.95
2022-08-16T20:26:58.169Z,11.90
2022-08-16T20:29:00.185Z,12.82
2022-08-16T20:31:02.192Z,13.30
2022-08-16T20:33:11.044Z,12.07
2022-08-16T20:35:17.851Z,12.45
2022-08-16T20:37:22.010Z,14.02
2022-08-16T20:39:24.365Z,14.43
2022-08-16T20:41:27.278Z,13.98
2022-08-16T20:43:29.267Z,14.00
2022-08-16T20:45:31.458Z,13.60
2022-08-16T20:47:33.643Z,13.27
2022-08-16T20:49:36.145Z,12.77
2022-08-16T20:51:46.859Z,12.27
2022-08-16T20:55:53.099Z,12.02
2022-08-16T20:57:55.322Z,11.65
2022-08-16T20:59:57.383Z,11.80
2022-08-16T21:01:59.488Z,10.40
2022-08-16T21:04:01.583Z,12.55
2022-08-16T21:06:04.354Z,12.43
2022-08-16T21:08:52.787Z,11.45
2022-08-16T21:10:28.409Z,11.73
2022-08-16T21:12:33.826Z,11.68
2022-08-16T21:14:42.931Z,12.43
2022-08-16T21:16:44.940Z,12.13
2022-08-16T21:18:47.089Z,12.48
2022-08-16T21:20:49.129Z,12.70
2022-08-16T21:22:56.301Z,13.75
2022-08-16T21:24:58.440Z,12.40
2022-08-16T21:27:02.754Z,12.85
2022-08-16T21:29:05.355Z,13.88
2022-08-16T21:31:11.517Z,12.75
2022-08-16T21:33:16.242Z,12.80
2022-08-16T21:35:18.675Z,13.20
2022-08-16T21:37:20.719Z,12.38
2022-08-16T21:39:22.716Z,13.30
2022-08-16T21:41:24.697Z,14.43
2022-08-16T21:43:31.940Z,14.52
2022-08-16T21:45:34.349Z,15.23
2022-08-16T21:47:36.376Z,12.80
2022-08-16T21:49:38.663Z,13.52
2022-08-16T21:51:40.652Z,13.98
2022-08-16T21:53:43.417Z,12.73
2022-08-16T21:55:47.764Z,14.27
2022-08-16T21:57:49.746Z,13.98
2022-08-16T21:59:52.973Z,15.23
2022-08-16T22:01:55.046Z,14.52
2022-08-16T22:04:26.706Z,19.15
2022-08-16T22:06:19.376Z,17.00
2022-08-16T22:08:21.541Z,14.80
2022-08-16T22:11:07.061Z,14.63
2022-08-16T22:12:46.330Z,14.85
2022-08-16T22:14:49.092Z,16.25
2022-08-16T22:16:51.160Z,15.90
2022-08-16T22:18:53.159Z,16.48
2022-08-16T22:20:55.156Z,15.13
2022-08-16T22:23:10.006Z,17.70
2022-08-16T22:25:12.581Z,15.60
2022-08-16T22:27:15.009Z,17.52
2022-08-16T22:29:17.063Z,15.77
2022-08-16T22:31:19.107Z,15.18
2022-08-16T22:33:26.356Z,15.70
2022-08-16T22:35:28.384Z,15.93
2022-08-16T22:37:30.407Z,16.95
2022-08-16T22:39:32.471Z,14.40
2022-08-16T22:41:34.991Z,15.35
2022-08-16T22:43:37.067Z,15.27
2022-08-16T22:45:39.356Z,17.25
2022-08-16T22:47:41.823Z,16.70
2022-08-16T22:49:43.823Z,18.05
2022-08-16T22:51:46.477Z,15.73
2022-08-16T22:55:50.822Z,15.68
2022-08-16T22:57:53.277Z,16.67
2022-08-16T22:59:55.313Z,16.75
2022-08-16T23:01:57.809Z,17.42
2022-08-16T23:06:01.999Z,17.02
2022-08-16T23:08:05.006Z,17.88
2022-08-16T23:10:07.391Z,16.40
2022-08-16T23:12:09.846Z,17.52
2022-08-16T23:14:11.840Z,19.20
2022-08-16T23:16:14.113Z,20.13
2022-08-16T23:18:16.680Z,23.10
2022-08-16T23:20:27.287Z,20.48
2022-08-16T23:23:19.892Z,20.30
2022-08-16T23:25:07.804Z,18.85
2022-08-16T23:27:09.814Z,18.33
2022-08-16T23:29:12.148Z,18.08
2022-08-16T23:31:18.184Z,16.58
2022-08-16T23:33:20.934Z,17.45
2022-08-16T23:37:27.053Z,17.77
2022-08-16T23:39:29.511Z,17.77
2022-08-16T23:41:34.931Z,20.50
2022-08-16T23:43:41.916Z,17.95
2022-08-16T23:45:54.189Z,17.70
2022-08-16T23:47:56.462Z,19.88
2022-08-16T23:50:03.436Z,17.98
2022-08-16T23:52:08.214Z,17.48
2022-08-16T23:54:11.612Z,17.35
2022-08-16T23:56:18.440Z,17.27
2022-08-16T23:58:24.581Z,17.67
